x

St. Augustine, Fl (sauf1) Weather Station

11:00am - Thu 17th Jan 2019 All times are EST. -5 hours from GMT.

  • Wind
    11mph, 11mph gusts
  • Sea Temp 58°f
  • Air Temp 56°f
  • Sea Pressure 1026.3mb
  • St. Augustine, Fl
  • St. Augustine, Fl

More Historic Weather Station data

Upgrade to MSW Pro to gain access to the past 30 days of data for over 8000 Wavebouys and Weather Stations around the globe.

Join

Comparision Forecast

View Surf forecast
   
Thu 01/17 11:00am 11 11 mph 1026.3mb 58f 56f
10:00am 9 10 mph 1026.3mb 58f 55f
9:00am 6 8 mph 1025.2mb 58f 52f
8:00am 8 10 mph 1024.8mb 57f 49f
7:00am 8 9 mph 1024.7mb 58f 48f
6:00am 7 8 mph 1024.3mb 58f 48f
5:00am 7 8 mph 1023.8mb 58f 47f
4:00am 7 8 mph 1024.2mb 58f 48f
3:00am 5 6 mph 1024.5mb 58f 49f
2:00am 8 8 mph 1024.7mb 58f 51f
1:00am 8 9 mph 1024.6mb 58f 52f
12:00am 5 6 mph 1025.1mb 58f 51f
Wed 01/16 11:00pm 5 5 mph 1025.3mb 58f 51f
10:00pm 3 5 mph 1025.2mb 58f 52f
9:00pm 2 3 mph 1024.8mb 58f 53f
8:00pm 2 3 mph 1024.8mb 59f 53f
7:00pm 2 3 mph 1024.2mb 59f 53f
6:00pm 3 5 mph 1023.8mb 59f 55f
5:00pm 7 8 mph 1023.7mb 59f 54f
4:00pm 6 8 mph 1023.8mb 59f 53f
3:00pm 8 10 mph 1024mb 59f 53f
2:00pm 10 11 mph 1024mb 58f 53f
1:00pm 11 13 mph 1024.5mb 58f 52f
12:00pm 15 17 mph 1025.7mb 58f 51f
11:00am 14 16 mph 1026.3mb 58f 50f
10:00am 15 17 mph 1025.7mb 58f 49f
9:00am 13 14 mph 1025.1mb 58f 47f
8:00am 10 13 mph 1024.4mb 58f 45f
7:00am 8 9 mph 1024.5mb 58f 43f
6:00am 8 9 mph 1024.3mb 58f 43f
5:00am 10 13 mph 1023.6mb 58f 44f
4:00am 10 13 mph 1023.4mb 58f 45f
3:00am 8 10 mph 1023.6mb 59f 47f
2:00am 9 10 mph 1023.3mb 58f 48f
1:00am 8 9 mph 1023.6mb 59f 49f
12:00am 8 10 mph 1024.3mb 59f 50f
Tue 01/15 11:00pm 7 10 mph 1024.6mb 59f 51f
10:00pm 11 14 mph 1024.5mb 59f 53f
9:00pm 6 9 mph 1024.1mb 59f 52f
8:00pm 16 17 mph 1023.6mb 59f 53f
7:00pm 11 14 mph 1023.4mb 59f 53f
6:00pm 14 16 mph 1023.1mb 60f 53f
5:00pm 15 16 mph 1023mb 60f 53f
4:00pm 17 20 mph 1023mb 60f 53f
3:00pm 14 17 mph 1022.7mb 60f 52f
2:00pm 14 15 mph 1022.8mb 60f 52f
1:00pm 11 14 mph 1023.3mb 60f 52f
12:00pm 13 15 mph 1024.1mb 60f 52f
11:00am 11 15 mph 1024.8mb 60f 52f
10:00am 10 13 mph 1024.3mb 60f 50f
9:00am 10 15 mph 1023.6mb 60f 49f
8:00am 9 11 mph 1023.2mb 59f 48f
7:00am 8 10 mph 1023mb 59f 48f
6:00am 3 5 mph 1022.7mb 59f 48f
5:00am 6 7 mph 1022.4mb 60f 49f
4:00am 13 14 mph 1022.6mb 60f 49f
3:00am 8 11 mph 1022.8mb 60f 49f
2:00am 8 9 mph 1022.4mb 60f 50f
1:00am 10 11 mph 1022.6mb 60f 50f
12:00am 11 14 mph 1022.8mb 60f 49f
Mon 01/14 11:00pm 8 10 mph 1023.1mb 60f 49f
10:00pm 11 14 mph 1023.1mb 60f 50f
9:00pm 11 14 mph 1022.8mb 60f 51f
8:00pm 21 23 mph 1022.7mb 61f 52f
7:00pm 17 20 mph 1023mb 61f 52f
6:00pm 17 18 mph 1022.3mb 61f 52f
5:00pm 16 18 mph 1021.9mb 62f 52f
4:00pm 17 20 mph 1022mb 62f 52f
3:00pm 15 17 mph 1022.2mb 62f 53f
2:00pm 15 16 mph 1022.5mb 61f 53f
1:00pm 15 17 mph 1022.7mb 61f 53f
12:00pm 11 13 mph 1023.7mb 61f 54f
11:00am 10 11 mph 1024.4mb 60f 54f
10:00am 11 14 mph 1024.4mb 60f 53f
9:00am 10 11 mph 1023.7mb 60f 53f
8:00am 8 10 mph 1023.1mb 60f 53f
7:00am 17 20 mph 1022.7mb 60f 54f
6:00am 11 13 mph 1022.1mb 60f 53f
5:00am 15 17 mph 1021.7mb 61f 54f
4:00am 15 18 mph 1021.5mb 61f 54f
3:00am 21 24 mph 1021.6mb 61f 55f
2:00am 23 25 mph 1021.3mb 61f 55f
1:00am 28 29 mph 1020.9mb 61f 57f
12:00am 23 25 mph 1020.9mb 61f 60f
Sun 01/13 11:00pm 17 20 mph 1021mb 61f 61f
10:00pm 5 5 mph 1020.4mb 61f 63f
9:00pm 2 2 mph 1019.9mb 62f 65f
8:00pm 3 3 mph 1019.7mb 62f 66f
7:00pm 2 3 mph 1019.5mb 62f 67f
6:00pm 3 5 mph 1019mb 62f 68f